Time;durP1;ratioP1;P1;durP2;ratioP2;P2;SDS_P1;SDS_P2;PMS_P1;PMS_P2;Temp;Humidity;BMP_temperature;BMP_pressure;BME280_temperature;BME280_humidity;BME280_pressure;Samples;Min_cycle;Max_cycle;Signal;HPM_P1;HPM_P2
2022/01/23 00:00:16;;;;;;;30.63;19.00;;;;;;;1.94;78.52;101291.09;4948360;28;20242;-78
2022/01/23 00:02:47;;;;;;;16.15;12.80;;;;;;;1.94;78.59;101283.31;4972787;28;20196;-79
2022/01/23 00:05:14;;;;;;;14.68;12.05;;;;;;;1.94;79.01;101280.72;4966244;28;20207;-78
2022/01/23 00:07:41;;;;;;;13.00;10.80;;;;;;;1.94;79.07;101285.03;4973987;28;20228;-78
2022/01/23 00:10:07;;;;;;;16.35;12.32;;;;;;;1.91;79.05;101280.72;4972433;28;20734;-78
2022/01/23 00:12:38;;;;;;;19.33;11.20;;;;;;;1.91;78.84;101282.47;4968788;28;20204;-78
2022/01/23 00:17:48;;;;;;;16.45;10.45;;;;;;;1.89;79.26;101279.91;4970044;28;20192;-78
2022/01/23 00:20:14;;;;;;;13.63;9.93;;;;;;;1.88;79.32;101285.91;4969495;28;20226;-78
2022/01/23 00:22:46;;;;;;;11.70;10.00;;;;;;;1.88;79.21;101280.75;4974801;28;20773;-78
2022/01/23 00:30:45;;;;;;;15.57;8.30;;;;;;;1.91;78.75;101290.25;4959109;28;20639;-78
2022/01/23 00:33:12;;;;;;;10.57;8.43;;;;;;;1.94;79.04;101285.03;4973887;28;20199;-78
2022/01/23 00:35:40;;;;;;;9.90;8.48;;;;;;;1.94;79.14;101288.50;4973331;28;20208;-78
2022/01/23 00:38:07;;;;;;;12.65;8.10;;;;;;;1.97;79.19;101285.03;4951998;28;20208;-78
2022/01/23 00:40:35;;;;;;;8.75;7.85;;;;;;;1.97;78.90;101280.75;4974654;28;20220;-78
2022/01/23 00:43:01;;;;;;;10.02;6.40;;;;;;;1.98;78.92;101277.28;4971668;28;20338;-78
2022/01/23 00:48:04;;;;;;;11.32;8.23;;;;;;;1.98;78.92;101271.25;4958012;28;20224;-78
2022/01/23 00:50:33;;;;;;;7.47;6.35;;;;;;;1.99;78.54;101263.44;4956681;28;21182;-78
2022/01/23 00:52:59;;;;;;;8.75;6.55;;;;;;;2.02;78.99;101264.31;4976427;28;20248;-78
2022/01/23 00:55:24;;;;;;;8.43;6.90;;;;;;;2.04;78.64;101265.19;4977394;28;20236;-78
2022/01/23 00:57:50;;;;;;;7.87;7.03;;;;;;;2.06;78.71;101273.81;4960608;28;20462;-78
2022/01/23 01:00:16;;;;;;;7.73;6.93;;;;;;;2.07;78.81;101266.03;4973319;28;20218;-78
2022/01/23 01:02:41;;;;;;;7.20;6.20;;;;;;;2.07;78.35;101265.16;4976794;28;20208;-78
2022/01/23 01:05:08;;;;;;;7.83;7.03;;;;;;;2.08;78.62;101269.47;4954226;28;20581;-78
2022/01/23 01:07:34;;;;;;;9.35;7.38;;;;;;;2.07;78.47;101267.75;4957575;28;20250;-78
2022/01/23 01:10:06;;;;;;;8.87;7.33;;;;;;;2.06;78.68;101271.22;4978421;28;20704;-77
2022/01/23 01:12:44;;;;;;;9.95;8.30;;;;;;;2.04;78.76;101268.63;4981847;28;20204;-78
2022/01/23 01:15:39;;;;;;;11.60;7.45;;;;;;;2.04;78.83;101279.00;4955362;28;20207;-79
2022/01/23 01:31:47;;;;;;;8.52;7.40;;;;;;;2.11;78.76;101261.72;4972202;23;20643;-78
2022/01/23 01:34:32;;;;;;;13.23;6.95;;;;;;;2.07;78.93;101258.25;4972857;28;20216;-78
2022/01/23 01:36:58;;;;;;;10.32;6.47;;;;;;;2.07;78.83;101267.75;4966993;28;20195;-77
2022/01/23 01:39:26;;;;;;;10.17;6.90;;;;;;;2.06;78.75;101263.44;4964834;28;20207;-77
2022/01/23 01:41:53;;;;;;;12.38;7.25;;;;;;;2.05;79.06;101265.16;4980116;28;20891;-77
2022/01/23 01:44:21;;;;;;;9.50;7.30;;;;;;;2.06;78.66;101260.88;4978488;28;20212;-77
2022/01/23 01:46:57;;;;;;;9.07;7.25;;;;;;;2.06;78.81;101263.44;4982668;28;20270;-77
2022/01/23 01:49:31;;;;;;;8.55;7.25;;;;;;;2.08;78.39;101254.81;4962388;28;20695;-77
2022/01/23 01:52:01;;;;;;;8.60;7.40;;;;;;;2.12;78.97;101258.25;4969913;28;20224;-78
2022/01/23 01:54:31;;;;;;;7.85;7.15;;;;;;;2.14;78.75;101253.94;4964836;28;20212;-78
2022/01/23 01:57:05;;;;;;;11.07;6.97;;;;;;;2.12;78.48;101253.91;4968666;28;20221;-78
2022/01/23 02:11:11;;;;;;;9.90;6.80;;;;;;;2.11;79.02;101252.22;4907929;29;20252;-77
2022/01/23 02:13:47;;;;;;;12.25;7.78;;;;;;;2.12;79.41;101242.69;4953123;28;20583;-78
2022/01/23 02:25:14;;;;;;;8.00;7.18;;;;;;;2.07;79.57;101252.22;4976196;28;20208;-78
2022/01/23 02:50:40;;;;;;;11.02;6.97;;;;;;;2.09;79.46;101248.75;4980750;28;20209;-78
2022/01/23 02:54:58;;;;;;;10.15;6.82;;;;;;;2.16;79.64;101214.19;4977413;28;20670;-78
2022/01/23 02:58:15;;;;;;;9.13;7.70;;;;;;;2.12;79.55;101202.06;4977953;28;20737;-78
2022/01/23 03:00:27;;;;;;;8.82;7.53;;;;;;;2.10;79.38;101215.91;4960560;28;20267;-78
2022/01/23 03:03:11;;;;;;;12.30;9.70;;;;;;;2.22;79.67;101208.09;4975398;28;20578;-79
2022/01/23 03:09:53;;;;;;;10.55;7.60;;;;;;;2.08;79.71;101207.25;4977913;28;20227;-78
2022/01/23 03:14:02;;;;;;;10.00;7.40;;;;;;;1.89;80.12;101214.22;4976726;28;20216;-78
2022/01/23 03:30:26;;;;;;;11.30;8.77;;;;;;;1.59;80.47;101221.19;4975475;28;20655;-79
2022/01/23 03:32:53;;;;;;;9.98;7.75;;;;;;;1.56;81.02;101223.78;4978049;28;20330;-78
2022/01/23 03:35:21;;;;;;;9.52;7.85;;;;;;;1.55;81.22;101214.28;4977806;28;20204;-78
2022/01/23 03:37:48;;;;;;;9.90;7.90;;;;;;;1.51;81.36;101218.63;4967704;28;20191;-78
2022/01/23 03:40:14;;;;;;;11.07;9.82;;;;;;;1.50;81.24;101216.88;4976218;28;20271;-79
2022/01/23 03:42:42;;;;;;;9.05;7.70;;;;;;;1.50;81.34;101211.69;4960631;28;20876;-79
2022/01/23 03:49:31;;;;;;;9.15;7.35;;;;;;;1.52;81.25;101202.22;4966611;28;20228;-78
2022/01/23 03:50:47;;;;;;;12.18;8.95;;;;;;;1.53;81.25;101209.09;4966702;28;20210;-79
2022/01/23 03:53:20;;;;;;;12.60;8.52;;;;;;;1.52;81.23;101207.38;4961128;28;20668;-78
2022/01/23 03:55:48;;;;;;;12.30;9.30;;;;;;;1.54;81.39;101202.22;4959713;28;20238;-78
2022/01/23 03:58:14;;;;;;;11.10;8.05;;;;;;;1.57;81.11;101199.63;4960070;28;20311;-79
2022/01/23 04:00:39;;;;;;;12.37;8.17;;;;;;;1.59;81.41;101204.78;4978619;28;21001;-78
2022/01/23 04:03:05;;;;;;;9.27;6.90;;;;;;;1.59;81.41;101210.81;4975923;28;20772;-78
2022/01/23 04:05:31;;;;;;;10.60;9.32;;;;;;;1.60;81.04;101206.53;4958273;28;20233;-78
2022/01/23 04:07:57;;;;;;;12.03;9.10;;;;;;;1.60;81.26;101204.78;4975852;28;20743;-79
2022/01/23 04:10:24;;;;;;;15.13;7.80;;;;;;;1.62;81.11;101209.97;4981801;28;20219;-79
2022/01/23 04:12:59;;;;;;;12.05;8.63;;;;;;;1.63;81.12;101206.53;4980941;28;20220;-78
2022/01/23 04:15:41;;;;;;;12.30;7.25;;;;;;;1.63;81.36;101209.13;4969536;28;20211;-78
2022/01/23 04:20:51;;;;;;;12.80;10.25;;;;;;;1.64;81.20;101219.44;4977307;28;20285;-79
2022/01/23 04:31:46;;;;;;;11.55;8.95;;;;;;;1.69;81.26;101227.22;4973607;28;20203;-79
2022/01/23 05:01:23;;;;;;;12.30;7.65;;;;;;;1.62;81.57;101259.16;4957656;28;20319;-79
2022/01/23 05:04:13;;;;;;;10.70;7.63;;;;;;;1.59;81.80;101254.00;4956608;28;20223;-79
2022/01/23 05:07:09;;;;;;;11.52;9.00;;;;;;;1.55;81.96;101254.00;4954668;28;20311;-79
2022/01/23 05:09:53;;;;;;;12.23;8.15;;;;;;;1.55;81.73;101256.59;4958957;28;20212;-79
2022/01/23 05:12:28;;;;;;;9.07;7.35;;;;;;;1.54;81.89;101254.88;4957646;28;20279;-79
2022/01/23 05:14:54;;;;;;;8.38;7.32;;;;;;;1.57;82.11;101253.13;4941184;28;20206;-79
2022/01/23 05:17:19;;;;;;;10.50;7.60;;;;;;;1.60;81.78;101258.31;4958034;28;20209;-79
2022/01/23 05:19:45;;;;;;;11.63;7.60;;;;;;;1.60;81.78;101259.19;4951557;28;20235;-78
2022/01/23 05:22:35;;;;;;;10.40;8.20;;;;;;;1.61;81.66;101254.88;4958425;28;20232;-78
2022/01/23 05:27:33;;;;;;;12.65;7.97;;;;;;;1.73;81.86;101244.50;4961113;28;20981;-78
2022/01/23 05:29:59;;;;;;;11.27;8.37;;;;;;;1.79;81.87;101239.31;4963859;28;20204;-79
2022/01/23 05:32:33;;;;;;;12.43;8.50;;;;;;;1.86;81.68;101246.19;4974731;28;20246;-79
2022/01/23 05:34:59;;;;;;;8.07;7.30;;;;;;;1.92;81.63;101256.56;4960580;28;20229;-79
2022/01/23 05:37:27;;;;;;;9.70;6.47;;;;;;;1.97;81.57;101259.13;4965538;28;20229;-78
2022/01/23 05:39:53;;;;;;;9.93;7.77;;;;;;;1.95;81.30;101264.31;4962270;28;20207;-79
2022/01/23 05:42:19;;;;;;;6.87;5.43;;;;;;;1.95;81.41;101261.72;4981385;28;20474;-79
2022/01/23 05:44:45;;;;;;;7.93;7.10;;;;;;;1.95;81.25;101272.09;4979645;28;20536;-79
2022/01/23 05:47:15;;;;;;;7.32;5.78;;;;;;;1.94;81.27;101270.34;4960926;28;20692;-79
2022/01/23 05:49:50;;;;;;;7.88;5.35;;;;;;;1.96;81.53;101268.63;4948576;28;20208;-79
2022/01/23 05:52:26;;;;;;;9.15;6.88;;;;;;;2.03;81.35;101264.31;4961310;28;20220;-78
2022/01/23 05:54:58;;;;;;;8.07;5.97;;;;;;;2.08;81.10;101251.31;4970206;28;20251;-80
2022/01/23 05:57:47;;;;;;;12.30;5.53;;;;;;;2.11;81.08;101257.38;4978651;28;20289;-78
2022/01/23 06:00:18;;;;;;;7.22;5.00;;;;;;;2.14;80.94;101244.41;4968781;28;20199;-78
2022/01/23 06:02:59;;;;;;;12.60;5.78;;;;;;;2.16;80.55;101244.41;4975258;28;20230;-79
2022/01/23 06:05:34;;;;;;;5.25;4.75;;;;;;;2.13;80.35;101245.28;4963857;28;20290;-79
2022/01/23 06:08:03;;;;;;;6.82;4.78;;;;;;;2.10;80.23;101249.59;4969523;28;20220;-79
2022/01/23 06:10:35;;;;;;;7.43;6.70;;;;;;;2.08;80.54;101251.31;4976288;28;20712;-77
2022/01/23 06:13:02;;;;;;;7.18;5.10;;;;;;;2.05;80.17;101249.59;4968718;28;20578;-77
2022/01/23 06:15:28;;;;;;;6.72;4.55;;;;;;;2.04;80.35;101250.47;4961646;28;20661;-77
2022/01/23 06:17:53;;;;;;;6.87;4.73;;;;;;;2.08;80.42;101251.31;4968640;28;20246;-76
2022/01/23 06:20:42;;;;;;;16.60;4.45;;;;;;;2.09;80.11;101256.53;4978372;28;20290;-79
2022/01/23 06:23:29;;;;;;;5.75;3.80;;;;;;;2.06;79.96;101253.09;4979288;28;20219;-79
2022/01/23 06:26:16;;;;;;;8.88;5.18;;;;;;;2.04;80.03;101257.41;4980514;28;20233;-79
2022/01/23 06:28:59;;;;;;;4.55;3.85;;;;;;;1.99;79.49;101255.66;4961119;28;20259;-79
2022/01/23 06:31:24;;;;;;;6.65;4.07;;;;;;;1.98;79.92;101256.53;4979264;28;20282;-77
2022/01/23 06:33:50;;;;;;;4.57;3.60;;;;;;;2.01;80.06;101254.81;4978700;28;20283;-77
2022/01/23 06:36:15;;;;;;;6.10;3.87;;;;;;;2.03;79.80;101263.47;4978464;28;20732;-77
2022/01/23 06:38:41;;;;;;;5.87;3.57;;;;;;;2.02;79.55;101272.94;4977270;28;20232;-77
2022/01/23 06:41:07;;;;;;;7.53;4.47;;;;;;;1.99;79.46;101266.03;4961796;28;20212;-78
2022/01/23 06:43:44;;;;;;;5.25;3.35;;;;;;;1.95;79.43;101266.91;4967603;28;20199;-78
2022/01/23 06:46:22;;;;;;;4.78;4.15;;;;;;;1.94;79.48;101270.34;4976821;28;20234;-78
2022/01/23 06:48:48;;;;;;;5.97;4.55;;;;;;;1.97;79.57;101272.09;4977327;28;20274;-78
2022/01/23 06:51:14;;;;;;;4.30;3.60;;;;;;;1.97;79.21;101267.78;4968228;28;20223;-78
2022/01/23 06:53:41;;;;;;;4.80;3.40;;;;;;;1.97;79.42;101270.38;4978928;28;20451;-78
2022/01/23 06:56:07;;;;;;;5.55;4.13;;;;;;;1.95;79.36;101266.91;4962758;28;20218;-78
2022/01/23 06:58:33;;;;;;;5.53;3.93;;;;;;;1.94;79.20;101267.75;4963219;28;20195;-78
2022/01/23 07:01:00;;;;;;;4.75;3.45;;;;;;;1.95;79.30;101266.91;4977111;28;20216;-78
2022/01/23 07:03:38;;;;;;;5.47;3.78;;;;;;;1.94;78.99;101265.19;4978165;28;20629;-78
2022/01/23 07:06:22;;;;;;;7.38;3.92;;;;;;;1.95;79.11;101279.03;4980710;28;20230;-78
2022/01/23 07:09:00;;;;;;;6.07;4.55;;;;;;;1.90;79.21;101286.78;4966427;28;20244;-77
2022/01/23 07:11:46;;;;;;;5.50;3.90;;;;;;;1.86;79.13;101292.81;4967781;28;20235;-77
2022/01/23 07:14:30;;;;;;;8.57;5.70;;;;;;;1.81;79.31;101299.75;4978523;28;20227;-77
2022/01/23 07:17:05;;;;;;;6.28;5.05;;;;;;;1.74;79.46;101300.63;4966792;28;20291;-77
2022/01/23 07:19:48;;;;;;;7.22;4.18;;;;;;;1.74;79.33;101314.44;4961886;28;20373;-77
2022/01/23 07:22:17;;;;;;;5.40;4.65;;;;;;;1.77;79.12;101310.97;4974241;28;20287;-77
2022/01/23 07:24:42;;;;;;;7.60;5.20;;;;;;;1.81;79.44;101312.72;4966189;28;20200;-78
2022/01/23 07:27:16;;;;;;;8.77;5.30;;;;;;;1.85;79.18;101310.97;4962300;28;20314;-77
2022/01/23 07:29:43;;;;;;;8.32;4.63;;;;;;;1.88;79.06;101310.97;4978770;28;20791;-77
2022/01/23 07:32:09;;;;;;;11.93;6.30;;;;;;;1.92;78.95;101317.91;4976065;28;20239;-78
2022/01/23 07:35:16;;;;;;;7.18;6.13;;;;;;;1.92;78.72;101326.53;4979465;23;20272;-84
2022/01/23 07:38:31;;;;;;;10.90;9.77;;;;;;;1.88;78.72;101321.34;4946252;28;20205;-83
2022/01/23 07:41:59;;;;;;;10.48;9.43;;;;;;;1.83;78.68;101331.69;4954024;29;20285;-82
2022/01/23 07:45:10;;;;;;;10.95;7.40;;;;;;;1.86;78.83;101328.25;5054732;23;20965;-82
2022/01/23 07:48:22;;;;;;;6.93;5.18;;;;;;;1.91;78.42;101331.69;4962042;28;20233;-82
2022/01/23 07:51:14;;;;;;;6.22;4.82;;;;;;;1.95;78.54;101336.03;4963595;28;20239;-81
2022/01/23 08:02:42;;;;;;;5.97;4.70;;;;;;;2.06;78.00;101331.69;4963589;28;20200;-82
2022/01/23 08:05:54;;;;;;;11.98;7.72;;;;;;;2.12;77.80;101325.63;4959578;28;20334;-83
2022/01/23 08:08:50;;;;;;;9.60;6.35;;;;;;;2.19;77.55;101329.97;4932984;28;20279;-82
2022/01/23 08:11:24;;;;;;;7.45;6.43;;;;;;;2.25;77.64;101329.09;4963667;28;20573;-82
2022/01/23 08:14:07;;;;;;;;;;;;;;;;;;;;;
2022/01/23 08:16:52;;;;;;;5.88;3.60;;;;;;;2.32;77.07;101326.47;4961903;28;20207;-82
2022/01/23 08:19:21;;;;;;;5.47;4.03;;;;;;;2.36;77.22;101328.19;4962666;28;20234;-84
2022/01/23 08:22:15;;;;;;;6.07;3.80;;;;;;;2.42;76.94;101329.91;4963630;28;20197;-82
2022/01/23 08:24:50;;;;;;;7.82;4.63;;;;;;;2.50;76.94;101325.56;4964154;28;20224;-82
2022/01/23 08:27:19;;;;;;;4.32;3.80;;;;;;;2.57;76.26;101329.88;4963325;28;20210;-83
2022/01/23 08:29:45;;;;;;;4.93;4.10;;;;;;;2.64;76.23;101333.28;4944720;28;20222;-82
2022/01/23 08:32:27;;;;;;;6.07;4.03;;;;;;;2.71;75.86;101334.16;4944240;28;20213;-82
2022/01/23 08:34:55;;;;;;;4.88;3.80;;;;;;;2.75;75.64;101322.88;4940200;28;20315;-84
2022/01/23 08:37:21;;;;;;;6.47;3.83;;;;;;;2.80;75.42;101329.75;4942530;29;20317;-83
2022/01/23 08:40:16;;;;;;;6.50;4.50;;;;;;;2.84;75.22;101328.91;4942950;29;20213;-82
2022/01/23 08:42:47;;;;;;;3.45;2.85;;;;;;;2.92;74.94;101333.19;4941978;28;21071;-83
2022/01/23 08:45:14;;;;;;;4.68;3.25;;;;;;;2.97;75.24;101339.22;4941463;29;20249;-82
2022/01/23 08:47:43;;;;;;;3.40;3.10;;;;;;;2.97;75.06;101328.81;4946721;28;20783;-82
2022/01/23 08:50:17;;;;;;;6.00;3.72;;;;;;;3.00;74.89;101339.22;4944602;28;20288;-82
2022/01/23 08:53:09;;;;;;;4.78;3.50;;;;;;;2.95;75.09;101334.03;4945118;28;20204;-83
2022/01/23 08:55:58;;;;;;;6.85;4.20;;;;;;;2.94;74.84;101339.22;4941019;28;20606;-82
2022/01/23 08:58:33;;;;;;;4.40;3.53;;;;;;;2.94;74.76;101341.81;4944600;28;20233;-82
2022/01/23 09:01:00;;;;;;;6.07;3.30;;;;;;;2.99;75.02;101340.06;4948556;28;20502;-82
2022/01/23 09:04:01;;;;;;;5.82;3.95;;;;;;;3.04;74.47;101340.91;4947496;28;20551;-82
2022/01/23 09:06:27;;;;;;;3.28;2.97;;;;;;;3.12;74.40;101348.69;4946764;28;20209;-82
2022/01/23 09:08:54;;;;;;;4.13;3.00;;;;;;;3.12;74.24;101341.75;4947631;28;20235;-81
2022/01/23 09:11:39;;;;;;;4.53;3.05;;;;;;;3.10;74.20;101344.34;4948246;29;20323;-81
2022/01/23 09:14:09;;;;;;;4.57;3.15;;;;;;;3.13;74.08;101338.25;4948391;29;20234;-82
2022/01/23 09:16:44;;;;;;;5.60;3.15;;;;;;;3.17;74.16;101344.31;4949098;28;20215;-81
2022/01/23 09:19:10;;;;;;;4.30;3.28;;;;;;;3.21;73.74;101338.22;4947177;28;20244;-83
2022/01/23 09:21:40;;;;;;;4.63;2.72;;;;;;;3.19;73.70;101335.66;4947989;29;20236;-82
2022/01/23 09:24:06;;;;;;;2.90;2.63;;;;;;;3.23;73.68;101337.34;4946582;28;20222;-84
2022/01/23 09:26:34;;;;;;;4.57;3.60;;;;;;;3.26;73.73;101341.66;4948543;28;20212;-82
2022/01/23 09:29:01;;;;;;;4.13;3.08;;;;;;;3.35;73.59;101327.75;4947867;28;20236;-82
2022/01/23 09:32:01;;;;;;;3.88;3.38;;;;;;;3.46;73.20;101329.44;4947507;28;20220;-81
2022/01/23 09:34:23;;;;;;;4.45;3.30;;;;;;;3.56;72.80;101335.41;4941083;28;20300;-82
2022/01/23 09:36:52;;;;;;;3.92;3.50;;;;;;;3.60;72.54;101331.06;4946782;28;20245;-83
2022/01/23 09:39:20;;;;;;;4.35;3.40;;;;;;;3.61;72.49;101333.63;4954873;28;20260;-84
2022/01/23 09:41:50;;;;;;;4.78;4.20;;;;;;;3.66;72.38;101341.41;4950642;28;20300;-83
2022/01/23 09:44:22;;;;;;;4.40;4.00;;;;;;;3.65;72.59;101327.56;4947832;28;20233;-83
2022/01/23 09:46:48;;;;;;;6.25;4.30;;;;;;;3.69;72.68;101337.03;4948523;28;20201;-83
2022/01/23 09:49:16;;;;;;;5.13;4.05;;;;;;;3.77;72.49;101331.78;4949431;29;20206;-83
2022/01/23 09:51:43;;;;;;;4.22;3.83;;;;;;;3.87;72.28;101336.03;4948040;28;20577;-83
2022/01/23 09:54:11;;;;;;;7.03;4.55;;;;;;;3.99;72.08;101330.72;4947826;28;20268;-83
2022/01/23 09:56:37;;;;;;;6.65;5.53;;;;;;;4.08;72.01;101331.50;4946559;28;20193;-82
2022/01/23 09:59:03;;;;;;;5.18;4.65;;;;;;;4.17;71.67;101339.25;4949144;28;20197;-82
2022/01/23 10:01:29;;;;;;;9.93;6.60;;;;;;;4.24;71.50;101340.03;4947519;29;21148;-82
2022/01/23 10:03:55;;;;;;;12.23;5.72;;;;;;;4.31;71.20;101339.09;4962956;28;21095;-84
2022/01/23 10:06:20;;;;;;;7.47;6.13;;;;;;;4.37;71.38;101333.84;4948090;28;20358;-83
2022/01/23 10:08:47;;;;;;;7.20;5.60;;;;;;;4.49;71.29;101325.06;4948755;28;20909;-83
2022/01/23 10:11:18;;;;;;;5.22;4.00;;;;;;;4.61;71.36;101324.91;4946911;28;20575;-82
2022/01/23 10:13:44;;;;;;;6.15;5.28;;;;;;;4.92;70.50;101320.19;4948083;29;20231;-82
2022/01/23 10:16:10;;;;;;;8.50;5.50;;;;;;;5.35;69.40;101317.00;4948267;28;20284;-84
2022/01/23 10:18:36;;;;;;;9.17;5.13;;;;;;;5.61;68.65;101316.59;4948709;28;20216;-85
2022/01/23 10:21:02;;;;;;;8.20;5.15;;;;;;;5.69;68.18;101311.25;4951184;28;20545;-85
2022/01/23 10:23:28;;;;;;;8.00;5.03;;;;;;;5.74;68.22;101310.28;4950957;29;20987;-82
2022/01/23 10:25:54;;;;;;;5.30;4.77;;;;;;;5.84;68.00;101300.59;4949838;28;20293;-83
2022/01/23 10:28:23;;;;;;;5.18;4.63;;;;;;;5.93;67.86;101300.44;4956398;28;20572;-83
2022/01/23 10:30:58;;;;;;;8.68;5.68;;;;;;;6.00;67.83;101287.31;4963808;28;20216;-85
2022/01/23 10:33:28;;;;;;;7.63;4.95;;;;;;;6.04;67.62;101292.44;4963127;28;20205;-83
2022/01/23 10:36:03;;;;;;;5.70;4.82;;;;;;;6.01;67.50;101278.59;4961668;28;20619;-81
2022/01/23 10:38:35;;;;;;;6.93;5.40;;;;;;;5.97;67.64;101289.09;4952060;28;20666;-81
2022/01/23 10:42:11;;;;;;;7.85;5.97;;;;;;;5.92;67.79;101277.84;4953243;29;20228;-81
2022/01/23 10:50:04;;;;;;;6.95;5.40;;;;;;;5.70;67.79;101268.69;4959091;28;20205;-82
2022/01/23 10:52:39;;;;;;;8.48;6.60;;;;;;;5.67;68.56;101260.88;4955782;28;20310;-84
2022/01/23 10:55:11;;;;;;;7.90;6.32;;;;;;;5.66;68.54;101257.41;4954076;28;20213;-83
2022/01/23 10:57:41;;;;;;;9.40;5.88;;;;;;;5.63;68.60;101256.63;4953921;28;20281;-81
2022/01/23 11:00:10;;;;;;;7.60;5.88;;;;;;;5.66;68.92;101252.22;4944937;29;20201;-81
2022/01/23 11:02:42;;;;;;;10.15;6.55;;;;;;;5.69;69.07;101244.31;4947059;28;20236;-81
2022/01/23 11:05:11;;;;;;;7.80;5.75;;;;;;;5.75;68.53;101245.97;4948049;28;20311;-82
2022/01/23 11:07:41;;;;;;;8.60;7.68;;;;;;;5.74;68.76;101239.03;4947069;28;20663;-82
2022/01/23 11:10:13;;;;;;;10.20;6.30;;;;;;;5.78;68.33;101235.50;4946252;29;20299;-81
2022/01/23 11:17:58;;;;;;;10.57;6.90;;;;;;;5.80;68.48;101238.94;4946775;28;20198;-81
2022/01/23 11:20:40;;;;;;;10.00;7.20;;;;;;;5.80;67.94;101228.50;4944367;28;20232;-84
2022/01/23 11:23:13;;;;;;;9.73;7.22;;;;;;;5.81;68.13;101224.16;4948094;28;20882;-82
2022/01/23 11:25:44;;;;;;;9.68;7.32;;;;;;;5.84;68.23;101219.75;4947238;28;20232;-81
2022/01/23 11:28:11;;;;;;;10.02;7.45;;;;;;;5.89;68.48;101217.06;4947141;28;20952;-81
2022/01/23 11:30:40;;;;;;;11.73;7.25;;;;;;;5.93;68.71;101213.50;4946954;29;20252;-82
2022/01/23 11:33:12;;;;;;;10.27;7.72;;;;;;;5.99;68.71;101208.19;4946194;28;20257;-81
2022/01/23 11:35:38;;;;;;;7.75;6.85;;;;;;;6.08;68.46;101201.97;4947838;28;20315;-83
2022/01/23 11:38:10;;;;;;;11.02;8.38;;;;;;;6.11;67.97;101202.75;4948716;28;20256;-83
2022/01/23 11:54:49;;;;;;;10.60;6.35;;;;;;;6.16;66.72;101198.28;4953779;29;20589;-82
2022/01/23 11:57:50;;;;;;;12.65;6.88;;;;;;;6.24;67.00;101179.00;4957236;29;21172;-84
2022/01/23 12:00:23;;;;;;;8.85;6.65;;;;;;;6.29;66.97;101180.66;4914949;29;20212;-84
2022/01/23 12:03:07;;;;;;;11.85;7.07;;;;;;;6.35;66.69;101182.28;4949037;28;20222;-82
2022/01/23 12:05:38;;;;;;;5.60;5.00;;;;;;;6.41;66.30;101169.94;4955809;29;20269;-83
2022/01/23 12:08:20;;;;;;;5.82;4.55;;;;;;;6.45;64.95;101165.50;4954459;29;20320;-81
2022/01/23 12:13:57;;;;;;;12.48;8.30;;;;;;;6.60;64.37;101169.53;4956532;29;20229;-82
2022/01/23 12:16:52;;;;;;;8.00;6.18;;;;;;;6.71;62.97;101159.72;4955121;29;20240;-84
2022/01/23 12:19:23;;;;;;;6.65;4.90;;;;;;;6.75;62.90;101163.97;4959418;28;20658;-81
2022/01/23 12:21:52;;;;;;;7.10;5.00;;;;;;;6.84;61.97;101155.91;4951332;28;20197;-83
2022/01/23 12:24:19;;;;;;;8.35;4.97;;;;;;;6.94;61.78;101153.06;4951478;29;20233;-81
2022/01/23 12:26:47;;;;;;;8.85;5.18;;;;;;;6.96;61.03;101143.47;4949120;28;20193;-81
2022/01/23 12:29:30;;;;;;;6.50;5.68;;;;;;;7.07;61.42;101151.91;4948760;28;20209;-81
2022/01/23 12:32:16;;;;;;;6.78;4.97;;;;;;;7.12;60.78;101136.97;4947843;28;20287;-83
2022/01/23 12:34:46;;;;;;;7.53;5.28;;;;;;;7.15;60.77;101131.66;4948980;29;20292;-84
2022/01/23 12:37:12;;;;;;;6.60;5.40;;;;;;;7.11;60.55;101140.47;4953483;28;20225;-82
2022/01/23 12:39:37;;;;;;;7.33;5.40;;;;;;;7.14;61.02;101132.56;4951379;28;20204;-81
2022/01/23 12:42:05;;;;;;;5.57;5.07;;;;;;;7.23;61.33;101123.63;4950972;28;20198;-81
2022/01/23 12:44:36;;;;;;;7.03;3.75;;;;;;;7.30;61.00;101120.81;4951316;29;20256;-82
2022/01/23 12:47:16;;;;;;;4.28;3.10;;;;;;;7.28;58.96;101112.16;4953459;28;20228;-82
2022/01/23 12:49:50;;;;;;;3.63;2.70;;;;;;;7.26;57.09;101116.59;4950410;28;20276;-83
2022/01/23 12:52:19;;;;;;;8.32;5.57;;;;;;;7.32;59.07;101111.19;4948337;28;20257;-81
2022/01/23 12:54:47;;;;;;;7.05;5.13;;;;;;;7.27;59.92;101114.81;4948059;28;20232;-82
2022/01/23 12:57:16;;;;;;;6.10;4.53;;;;;;;7.19;60.43;101116.78;4946728;28;20760;-83
2022/01/23 12:59:43;;;;;;;5.55;4.40;;;;;;;7.10;60.74;101112.63;4952061;28;20217;-84
2022/01/23 13:02:15;;;;;;;6.18;4.95;;;;;;;7.12;60.86;101120.44;4944485;28;20267;-82
2022/01/23 13:04:45;;;;;;;6.45;5.40;;;;;;;7.13;61.51;101114.31;4946361;28;20233;-82
2022/01/23 13:07:25;;;;;;;6.90;5.40;;;;;;;7.13;62.04;101111.69;4948280;28;20276;-82
2022/01/23 13:10:05;;;;;;;6.20;4.10;;;;;;;7.09;62.17;101103.94;4951691;29;20210;-81
2022/01/23 13:32:29;;;;;;;9.13;6.87;;;;;;;6.73;63.93;101083.97;4902055;29;20210;-83
2022/01/23 13:35:07;;;;;;;6.97;4.82;;;;;;;6.69;64.04;101090.97;4954621;23;20256;-77
2022/01/23 13:37:36;;;;;;;6.57;5.35;;;;;;;6.72;64.16;101080.47;4969720;28;20212;-79
2022/01/23 13:40:12;;;;;;;7.65;5.35;;;;;;;6.77;63.91;101082.97;4974428;28;20291;-77
2022/01/23 13:49:54;;;;;;;4.03;3.63;;;;;;;7.02;62.31;101063.19;4975068;28;20818;-78
2022/01/23 13:57:33;;;;;;;3.03;2.45;;;;;;;7.11;59.90;101063.84;4977835;28;20222;-77
2022/01/23 14:02:36;;;;;;;2.25;2.03;;;;;;;7.18;58.07;101058.41;4976788;28;20219;-77
2022/01/23 14:05:40;;;;;;;2.70;1.80;;;;;;;7.15;56.68;101058.50;4978555;28;20815;-79
2022/01/23 14:08:05;;;;;;;2.53;1.85;;;;;;;7.11;56.57;101064.72;4938804;28;20243;-77
2022/01/23 14:10:34;;;;;;;1.60;0.97;;;;;;;7.11;56.65;101066.47;4978264;28;20258;-77
2022/01/23 14:13:14;;;;;;;2.00;1.40;;;;;;;7.05;56.35;101062.25;4977196;28;20195;-77
2022/01/23 14:15:44;;;;;;;2.95;2.22;;;;;;;7.06;57.03;101062.22;4977986;28;20243;-78
2022/01/23 14:18:13;;;;;;;3.00;1.50;;;;;;;7.00;56.13;101069.34;4983918;28;20216;-79
2022/01/23 14:20:41;;;;;;;1.75;1.58;;;;;;;7.01;56.23;101071.06;4977639;28;20208;-79
2022/01/23 14:23:25;;;;;;;1.60;1.30;;;;;;;7.01;56.69;101069.31;4977290;28;20226;-77
2022/01/23 14:25:54;;;;;;;2.33;2.00;;;;;;;7.01;56.39;101061.47;4978325;28;20230;-77
2022/01/23 14:28:27;;;;;;;3.63;2.08;;;;;;;7.04;56.94;101070.97;4983026;28;20232;-77
2022/01/23 14:30:58;;;;;;;2.17;1.55;;;;;;;7.05;56.79;101062.25;4979089;28;20219;-77
2022/01/23 14:33:32;;;;;;;1.90;1.35;;;;;;;7.06;56.51;101061.34;4979517;28;20211;-77
2022/01/23 14:35:58;;;;;;;2.97;1.67;;;;;;;7.03;56.47;101057.06;4979734;28;20239;-78
2022/01/23 14:38:27;;;;;;;3.88;1.83;;;;;;;7.05;56.81;101059.66;4982000;28;20208;-77
2022/01/23 14:41:07;;;;;;;2.17;1.73;;;;;;;7.04;56.64;101053.53;4998987;28;20846;-78
2022/01/23 14:43:39;;;;;;;2.55;1.48;;;;;;;7.06;56.99;101059.59;4995619;28;20222;-76
2022/01/23 14:46:07;;;;;;;3.35;1.40;;;;;;;7.06;56.91;101056.97;4988052;28;20224;-78
2022/01/23 14:48:45;;;;;;;2.00;1.80;;;;;;;7.05;57.12;101057.03;4982288;28;20232;-78
2022/01/23 14:51:16;;;;;;;2.00;1.52;;;;;;;7.01;56.33;101051.00;4977472;28;20304;-78
2022/01/23 14:53:42;;;;;;;2.10;1.70;;;;;;;7.01;56.47;101055.38;4976818;28;20202;-76
2022/01/23 14:56:10;;;;;;;3.00;2.37;;;;;;;7.02;57.04;101046.63;4977119;28;20223;-77
2022/01/23 14:58:37;;;;;;;2.50;1.50;;;;;;;7.00;56.89;101054.53;4977762;28;20204;-76
2022/01/23 15:01:04;;;;;;;1.70;1.42;;;;;;;6.93;57.04;101047.75;4976742;28;20225;-77
2022/01/23 15:03:31;;;;;;;2.03;1.20;;;;;;;6.93;57.13;101052.97;4978124;28;20207;-76
2022/01/23 15:05:59;;;;;;;1.40;1.27;;;;;;;6.92;57.27;101042.56;4977962;28;20228;-77
2022/01/23 15:08:26;;;;;;;2.55;1.52;;;;;;;6.87;57.54;101040.06;4977729;28;20657;-77
2022/01/23 15:10:55;;;;;;;3.13;1.95;;;;;;;6.85;57.11;101053.16;4978534;28;20212;-77
2022/01/23 15:13:22;;;;;;;3.63;2.30;;;;;;;6.77;56.91;101047.25;4977470;28;20242;-76
2022/01/23 15:15:48;;;;;;;10.35;1.80;;;;;;;6.73;56.74;101048.25;4978386;28;20220;-78
2022/01/23 15:18:14;;;;;;;3.93;1.70;;;;;;;6.74;56.98;101043.88;4977968;28;20208;-77
2022/01/23 15:20:40;;;;;;;2.30;2.00;;;;;;;6.71;57.13;101044.81;4975163;28;20463;-77
2022/01/23 15:23:07;;;;;;;2.47;2.20;;;;;;;6.69;57.00;101045.75;4976830;28;20203;-77